Time;durP1;ratioP1;P1;durP2;ratioP2;P2;SDS_P1;SDS_P2;PMS_P1;PMS_P2;Temp;Humidity;BMP_temperature;BMP_pressure;BME280_temperature;BME280_humidity;BME280_pressure;Samples;Min_cycle;Max_cycle;Signal;HPM_P1;HPM_P2
2021/12/19 00:10:07;;;;;;;36.10;16.63;;;;;;;7.24;93.74;103139.13;4965581;28;20047;-92
2021/12/19 00:12:34;;;;;;;36.35;16.45;;;;;;;7.24;93.92;103139.13;4950508;28;20051;-88
2021/12/19 00:15:02;;;;;;;33.95;16.23;;;;;;;7.25;93.68;103141.59;4940997;28;20487;-89
2021/12/19 00:17:29;;;;;;;36.38;18.15;;;;;;;7.27;93.90;103146.84;4948923;28;20050;-90
2021/12/19 00:19:59;;;;;;;40.17;17.80;;;;;;;7.25;93.90;103144.34;4940911;28;20056;-90
2021/12/19 00:22:46;;;;;;;33.20;16.60;;;;;;;7.27;93.77;103155.13;4955315;28;20123;-91
2021/12/19 00:25:13;;;;;;;35.88;17.25;;;;;;;7.26;93.64;103143.25;4953901;28;20042;-89
2021/12/19 00:27:40;;;;;;;37.53;17.65;;;;;;;7.26;93.63;103136.91;4943546;28;20461;-89
2021/12/19 00:30:08;;;;;;;44.53;18.63;;;;;;;7.24;93.74;103133.59;4927970;28;20049;-89
2021/12/19 00:32:35;;;;;;;39.28;17.38;;;;;;;7.23;93.64;103143.78;4953750;28;20158;-88
2021/12/19 00:35:01;;;;;;;39.88;17.70;;;;;;;7.24;93.59;103130.84;4950180;28;20047;-85
2021/12/19 00:37:30;;;;;;;38.85;17.15;;;;;;;7.20;93.37;103133.28;4966769;28;20061;-86
2021/12/19 00:39:56;;;;;;;38.97;18.45;;;;;;;7.16;93.50;103125.81;4953676;28;20039;-88
2021/12/19 00:42:34;;;;;;;40.30;15.30;;;;;;;7.13;93.55;103131.88;4925062;28;20138;-86
2021/12/19 00:45:15;;;;;;;33.75;15.48;;;;;;;7.07;93.36;103128.22;4940075;28;20047;-90
2021/12/19 00:47:43;;;;;;;30.52;15.30;;;;;;;7.06;93.32;103120.25;4946808;28;20050;-84
2021/12/19 00:50:13;;;;;;;37.33;16.98;;;;;;;7.03;93.36;103120.78;4941847;28;20043;-85
2021/12/19 00:52:42;;;;;;;30.00;15.05;;;;;;;6.99;93.32;103120.47;4957806;28;20475;-86
2021/12/19 00:55:09;;;;;;;36.03;15.80;;;;;;;6.97;93.24;103119.06;4954988;28;20039;-85
2021/12/19 00:57:36;;;;;;;35.13;15.27;;;;;;;6.94;93.28;103109.41;4953135;28;20061;-85
2021/12/19 01:00:05;;;;;;;31.23;14.63;;;;;;;6.92;92.98;103111.59;4952396;28;20043;-86
2021/12/19 01:02:32;;;;;;;30.15;13.85;;;;;;;6.88;93.08;103106.91;4938433;28;20507;-86
2021/12/19 01:05:00;;;;;;;33.08;15.10;;;;;;;6.87;93.05;103099.72;4939846;28;20051;-86
2021/12/19 01:07:27;;;;;;;34.45;15.93;;;;;;;6.85;93.15;103101.91;4940600;28;20134;-87
2021/12/19 01:09:53;;;;;;;28.38;14.40;;;;;;;6.82;93.38;103095.00;4956943;28;20039;-86
2021/12/19 01:12:20;;;;;;;33.22;15.43;;;;;;;6.82;93.41;103092.25;4946459;28;20055;-87
2021/12/19 01:14:47;;;;;;;32.58;14.73;;;;;;;6.81;93.41;103095.25;4924019;28;20082;-86
2021/12/19 01:17:14;;;;;;;32.30;15.43;;;;;;;6.78;93.22;103101.31;4946195;28;20081;-86
2021/12/19 01:19:41;;;;;;;31.48;15.23;;;;;;;6.75;93.17;103103.47;4943418;28;20047;-87
2021/12/19 01:22:08;;;;;;;34.60;15.13;;;;;;;6.73;93.46;103100.16;4937543;28;20051;-85
2021/12/19 01:24:35;;;;;;;36.50;15.20;;;;;;;6.72;93.45;103104.00;4954075;28;20047;-86
2021/12/19 01:27:03;;;;;;;36.63;16.98;;;;;;;6.68;93.38;103102.88;4949144;28;20054;-86
2021/12/19 01:29:30;;;;;;;36.55;16.95;;;;;;;6.66;93.19;103104.22;4934400;29;20508;-86
2021/12/19 01:31:57;;;;;;;33.25;15.80;;;;;;;6.64;92.96;103110.00;4949013;28;20043;-86
2021/12/19 01:34:24;;;;;;;41.28;16.35;;;;;;;6.61;93.35;103107.75;4921707;29;20391;-86
2021/12/19 01:36:51;;;;;;;38.55;14.77;;;;;;;6.59;93.34;103111.88;4935655;29;20043;-85
2021/12/19 01:39:18;;;;;;;37.28;15.73;;;;;;;6.54;93.24;103112.63;4935580;28;20123;-87
2021/12/19 01:41:48;;;;;;;32.13;14.43;;;;;;;6.52;93.13;103097.47;4954105;28;20034;-87
2021/12/19 01:44:15;;;;;;;34.40;14.32;;;;;;;6.49;93.27;103103.50;4942320;28;20043;-86
2021/12/19 01:46:44;;;;;;;31.58;14.95;;;;;;;6.47;93.25;103105.69;4943174;28;20137;-86
2021/12/19 01:49:12;;;;;;;31.85;14.63;;;;;;;6.46;93.09;103093.03;4959737;28;20045;-86
2021/12/19 01:51:38;;;;;;;30.88;14.13;;;;;;;6.42;93.04;103092.72;4949259;28;20039;-86
2021/12/19 01:54:06;;;;;;;26.30;12.00;;;;;;;6.36;93.15;103102.00;4958497;28;20049;-86
2021/12/19 01:56:33;;;;;;;33.53;13.35;;;;;;;6.34;93.20;103098.69;4957088;28;20077;-85
2021/12/19 01:59:00;;;;;;;30.00;13.60;;;;;;;6.28;92.98;103094.22;4940558;28;20124;-87
2021/12/19 02:01:26;;;;;;;30.20;13.15;;;;;;;6.22;92.66;103103.53;4956567;28;20471;-86
2021/12/19 02:03:53;;;;;;;27.30;12.48;;;;;;;6.14;92.69;103092.97;4942496;28;22176;-87
2021/12/19 02:06:21;;;;;;;30.13;13.45;;;;;;;6.11;92.70;103099.00;4948839;28;20479;-86
2021/12/19 02:08:53;;;;;;;28.85;13.85;;;;;;;6.05;92.65;103100.84;4943634;28;20509;-86
2021/12/19 02:11:20;;;;;;;26.00;12.88;;;;;;;6.03;92.53;103096.69;4965113;28;20039;-85
2021/12/19 02:13:47;;;;;;;29.20;12.98;;;;;;;6.06;92.86;103096.19;4959727;28;20129;-85
2021/12/19 02:16:14;;;;;;;29.40;13.65;;;;;;;6.12;93.02;103092.38;4942407;28;20050;-84
2021/12/19 02:18:41;;;;;;;37.75;15.68;;;;;;;6.19;92.97;103090.28;4955488;28;20039;-86
2021/12/19 02:21:07;;;;;;;35.17;15.00;;;;;;;6.24;93.32;103086.75;4936220;29;20051;-85
2021/12/19 02:23:34;;;;;;;36.92;16.38;;;;;;;6.28;93.51;103085.97;4954671;28;20478;-85
2021/12/19 02:26:01;;;;;;;29.02;13.10;;;;;;;6.32;93.50;103076.13;4959177;28;20035;-86
2021/12/19 02:28:28;;;;;;;35.83;15.30;;;;;;;6.33;93.47;103082.44;4962954;28;20049;-86
2021/12/19 02:30:55;;;;;;;33.83;15.13;;;;;;;6.33;93.29;103079.69;4949444;28;20074;-86
2021/12/19 02:33:25;;;;;;;33.35;14.80;;;;;;;6.31;93.20;103081.84;4940044;28;20050;-86
2021/12/19 02:36:19;;;;;;;36.25;15.15;;;;;;;6.29;92.87;103081.28;4958765;28;20110;-86
2021/12/19 02:49:49;;;;;;;28.02;12.30;;;;;;;6.01;92.27;103076.88;4958952;28;20047;-86
2021/12/19 02:52:19;;;;;;;27.70;12.60;;;;;;;5.98;92.28;103069.94;4958309;28;20094;-85
2021/12/19 02:54:46;;;;;;;26.40;13.07;;;;;;;5.93;92.41;103067.16;4941602;28;20042;-87
2021/12/19 02:57:13;;;;;;;32.80;13.77;;;;;;;5.91;92.47;103065.75;4948061;28;20134;-86
2021/12/19 02:59:40;;;;;;;26.30;12.23;;;;;;;5.91;92.44;103065.75;4942006;28;20035;-87
2021/12/19 03:02:07;;;;;;;27.20;12.50;;;;;;;5.89;92.34;103065.19;4947592;28;20073;-86
2021/12/19 03:04:34;;;;;;;30.23;14.52;;;;;;;5.89;92.49;103076.19;4948309;28;20113;-87
2021/12/19 03:07:01;;;;;;;28.67;13.73;;;;;;;5.88;92.35;103069.84;4964615;28;20058;-85
2021/12/19 03:20:03;;;;;;;36.03;18.27;;;;;;;5.79;92.42;103060.38;4942202;28;20138;-86
2021/12/19 03:22:30;;;;;;;44.35;16.67;;;;;;;5.77;92.34;103058.97;4945853;28;20051;-85
2021/12/19 03:24:57;;;;;;;38.30;16.63;;;;;;;5.76;92.43;103054.56;4947280;29;20366;-86
2021/12/19 03:27:24;;;;;;;41.90;19.05;;;;;;;5.76;92.50;103058.13;4947354;28;20155;-86
2021/12/19 03:29:50;;;;;;;44.33;17.35;;;;;;;5.76;92.70;103057.31;4946616;29;20402;-85
2021/12/19 03:32:17;;;;;;;43.65;16.17;;;;;;;5.75;92.37;103059.22;4958019;28;20475;-86
2021/12/19 03:34:44;;;;;;;43.55;18.85;;;;;;;5.74;92.63;103062.22;4952438;28;20043;-87
2021/12/19 03:37:11;;;;;;;45.22;19.55;;;;;;;5.76;93.08;103058.13;4923838;29;20174;-86
2021/12/19 03:39:55;;;;;;;40.08;16.90;;;;;;;5.81;93.29;103054.59;4938668;29;20050;-86
2021/12/19 03:42:26;;;;;;;42.83;17.05;;;;;;;5.81;93.34;103046.38;4945565;29;20154;-86
2021/12/19 03:44:53;;;;;;;35.35;16.48;;;;;;;5.83;93.43;103044.19;4946130;29;21578;-86
2021/12/19 03:47:20;;;;;;;37.72;15.45;;;;;;;5.84;93.28;103043.09;4921122;29;20476;-85
2021/12/19 03:49:47;;;;;;;32.88;14.93;;;;;;;5.77;93.28;103037.78;4944840;29;20042;-86
2021/12/19 03:52:14;;;;;;;37.35;14.95;;;;;;;5.76;93.30;103038.06;4944790;29;20043;-86
2021/12/19 03:54:41;;;;;;;30.85;13.07;;;;;;;5.75;93.77;103033.63;4937936;29;20047;-85
2021/12/19 03:57:11;;;;;;;32.28;13.52;;;;;;;5.75;93.45;103033.63;4956237;28;20043;-85
2021/12/19 03:59:40;;;;;;;30.85;14.20;;;;;;;5.81;93.89;103035.38;4939295;28;20394;-85
2021/12/19 04:02:07;;;;;;;37.10;17.42;;;;;;;5.87;93.95;103034.38;4941366;28;20055;-85
2021/12/19 04:04:37;;;;;;;28.42;13.68;;;;;;;5.92;93.92;103042.69;4959851;28;20139;-85
2021/12/19 04:07:04;;;;;;;25.98;14.00;;;;;;;5.99;94.15;103027.63;4949238;28;20047;-86
2021/12/19 04:09:31;;;;;;;30.58;14.77;;;;;;;6.04;94.13;103029.59;4953544;28;20047;-85
2021/12/19 04:11:58;;;;;;;31.38;13.68;;;;;;;6.10;94.34;103037.66;4956870;28;20514;-86
2021/12/19 04:14:25;;;;;;;34.25;14.57;;;;;;;6.13;94.29;103028.88;4956732;28;20038;-85
2021/12/19 04:16:53;;;;;;;29.83;13.13;;;;;;;6.17;94.29;103031.13;4923372;28;20089;-85
2021/12/19 04:19:20;;;;;;;31.23;13.63;;;;;;;6.20;94.15;103017.66;4940720;28;20054;-86
2021/12/19 04:21:48;;;;;;;44.17;20.02;;;;;;;6.23;94.25;103022.66;4940135;28;20066;-86
2021/12/19 04:24:15;;;;;;;38.65;15.32;;;;;;;6.26;94.39;103021.28;4957922;28;20142;-84
2021/12/19 04:26:41;;;;;;;33.85;15.38;;;;;;;6.29;94.46;103013.34;4943837;28;20070;-86
2021/12/19 04:29:08;;;;;;;32.30;15.85;;;;;;;6.30;94.21;103014.19;4944791;28;20053;-86
2021/12/19 04:31:35;;;;;;;34.28;16.00;;;;;;;6.30;94.41;103006.75;4961378;28;20490;-86
2021/12/19 04:34:02;;;;;;;37.67;16.45;;;;;;;6.32;94.31;103015.59;4947009;28;20364;-85
2021/12/19 04:36:34;;;;;;;44.88;17.48;;;;;;;6.34;94.57;103013.41;4939929;28;20382;-86
2021/12/19 04:57:35;;;;;;;49.30;19.25;;;;;;;6.39;94.84;102999.69;4940040;28;20036;-85
2021/12/19 05:00:08;;;;;;;40.15;18.73;;;;;;;6.41;94.76;102997.50;4947438;28;20070;-85
2021/12/19 05:15:53;;;;;;;49.35;20.20;;;;;;;6.46;95.17;102994.78;4955569;28;20137;-84
2021/12/19 05:18:24;;;;;;;57.72;23.73;;;;;;;6.46;95.64;102992.03;4956166;28;20077;-84
2021/12/19 05:20:59;;;;;;;75.78;30.33;;;;;;;6.48;96.20;102989.88;4959901;28;20058;-84
2021/12/19 05:23:37;;;;;;;89.13;41.13;;;;;;;6.49;95.79;102997.00;4943075;28;20050;-84
2021/12/19 05:26:06;;;;;;;109.43;52.38;;;;;;;6.52;96.40;102993.75;4947233;28;20084;-85
2021/12/19 05:28:33;;;;;;;124.85;62.85;;;;;;;6.55;96.32;102993.22;4948163;29;20047;-84
2021/12/19 05:31:01;;;;;;;136.98;71.22;;;;;;;6.58;96.48;102992.69;4955107;28;20047;-84
2021/12/19 05:33:27;;;;;;;130.63;66.85;;;;;;;6.60;96.32;102996.00;4939740;29;20054;-84
2021/12/19 05:46:38;;;;;;;36.90;19.40;;;;;;;6.65;96.78;103001.53;4959378;28;20043;-85
2021/12/19 05:49:06;;;;;;;46.67;19.50;;;;;;;6.67;96.91;102998.53;4946323;29;20072;-85
2021/12/19 05:51:34;;;;;;;42.58;17.63;;;;;;;6.70;97.23;102996.06;4944363;29;20039;-84
2021/12/19 05:54:01;;;;;;;42.63;18.27;;;;;;;6.73;97.48;103001.06;4931139;29;20543;-85
2021/12/19 05:56:28;;;;;;;37.95;16.67;;;;;;;6.78;97.29;103004.94;4943047;28;20059;-85
2021/12/19 05:58:55;;;;;;;37.47;17.83;;;;;;;6.79;97.04;103004.66;4936622;29;20043;-85
2021/12/19 06:01:22;;;;;;;36.88;16.95;;;;;;;6.80;96.86;103008.25;4956450;28;20051;-85
2021/12/19 06:03:49;;;;;;;39.90;17.60;;;;;;;6.81;96.80;103009.91;4962073;28;20055;-84
2021/12/19 06:06:15;;;;;;;42.88;17.50;;;;;;;6.80;96.74;103005.50;4955365;28;20134;-84
2021/12/19 06:08:46;;;;;;;43.25;16.55;;;;;;;6.80;96.77;103005.50;4945239;28;20073;-84
2021/12/19 06:11:14;;;;;;;40.70;18.40;;;;;;;6.80;96.69;103005.50;4936028;29;20043;-84
2021/12/19 06:13:41;;;;;;;39.92;19.27;;;;;;;6.77;96.42;103011.53;4948255;28;20047;-85
2021/12/19 06:16:08;;;;;;;36.53;18.38;;;;;;;6.75;96.37;103009.06;4958186;28;20050;-85
2021/12/19 06:18:35;;;;;;;57.05;20.10;;;;;;;6.74;96.46;103013.72;4942479;28;20046;-85
2021/12/19 06:21:03;;;;;;;40.53;19.88;;;;;;;6.74;96.54;103022.00;4941028;28;20043;-84
2021/12/19 06:23:33;;;;;;;38.58;18.85;;;;;;;6.75;96.73;103020.88;4927107;28;20502;-85
2021/12/19 06:26:00;;;;;;;40.75;19.02;;;;;;;6.78;96.83;103024.22;4964433;28;20557;-85
2021/12/19 06:28:26;;;;;;;43.90;18.10;;;;;;;6.78;96.99;103019.53;4963709;28;20055;-85
2021/12/19 06:30:53;;;;;;;40.38;19.00;;;;;;;6.81;96.89;103015.41;4958970;28;20037;-85
2021/12/19 06:33:20;;;;;;;47.25;19.17;;;;;;;6.82;97.09;103015.16;4958394;28;20041;-85
2021/12/19 06:35:48;;;;;;;44.70;18.35;;;;;;;6.84;96.93;103020.38;4957906;28;20475;-85
2021/12/19 06:38:15;;;;;;;46.70;19.80;;;;;;;6.85;96.90;103027.56;4957055;28;20117;-85
2021/12/19 06:40:42;;;;;;;47.25;20.35;;;;;;;6.88;97.07;103024.28;4958925;28;20131;-84
2021/12/19 06:43:09;;;;;;;45.03;19.48;;;;;;;6.89;96.75;103023.16;4948322;28;20475;-85
2021/12/19 06:45:36;;;;;;;46.72;20.05;;;;;;;6.90;97.10;103027.59;4940086;28;20051;-84
2021/12/19 06:48:03;;;;;;;40.85;19.13;;;;;;;6.91;97.06;103023.75;4955114;28;20696;-85
2021/12/19 06:50:30;;;;;;;55.58;21.10;;;;;;;6.91;97.06;103029.28;4940903;28;20047;-85
2021/12/19 06:52:57;;;;;;;43.58;20.30;;;;;;;6.92;97.03;103025.41;4957405;28;20050;-85
2021/12/19 06:55:24;;;;;;;40.65;18.70;;;;;;;6.93;97.20;103021.56;4959239;28;20042;-84
2021/12/19 06:57:53;;;;;;;45.80;20.00;;;;;;;6.94;97.08;103023.19;4943119;28;20039;-85
2021/12/19 07:00:25;;;;;;;45.88;19.48;;;;;;;6.94;97.14;103014.94;4958579;28;20045;-85
2021/12/19 07:02:53;;;;;;;45.63;20.27;;;;;;;6.94;96.95;103023.19;4956696;28;20051;-84
2021/12/19 07:05:22;;;;;;;51.80;21.33;;;;;;;6.94;96.96;103020.44;4957055;28;20348;-85
2021/12/19 07:07:49;;;;;;;46.78;19.83;;;;;;;6.94;97.00;103025.97;4958996;28;20050;-85
2021/12/19 07:10:16;;;;;;;53.08;20.63;;;;;;;6.96;97.17;103030.13;4958011;28;20043;-85
2021/12/19 07:12:43;;;;;;;47.65;20.08;;;;;;;6.96;97.22;103026.53;4946368;28;20402;-85
2021/12/19 07:15:10;;;;;;;56.10;22.00;;;;;;;6.97;97.00;103019.91;4957303;28;20552;-85
2021/12/19 07:17:37;;;;;;;52.33;21.80;;;;;;;6.98;97.04;103016.09;4941289;28;20049;-85
2021/12/19 07:20:08;;;;;;;54.30;23.10;;;;;;;6.98;97.09;103007.81;4955559;28;20121;-85
2021/12/19 07:22:35;;;;;;;60.97;22.67;;;;;;;6.97;97.13;103011.66;4940841;28;20039;-85
2021/12/19 07:25:02;;;;;;;47.83;22.05;;;;;;;6.96;96.84;103015.53;4955536;28;20138;-85
2021/12/19 07:27:29;;;;;;;46.22;21.60;;;;;;;6.93;96.94;103010.56;4939152;28;21161;-85
2021/12/19 07:29:56;;;;;;;57.45;22.15;;;;;;;6.92;96.74;103014.38;4930997;29;20039;-85
2021/12/19 07:32:24;;;;;;;44.45;20.52;;;;;;;6.91;96.64;103016.31;4955224;28;20580;-85
2021/12/19 07:35:12;;;;;;;55.88;21.85;;;;;;;6.86;96.39;103016.28;4949405;28;20668;-85
2021/12/19 07:37:40;;;;;;;54.53;20.90;;;;;;;6.84;96.35;103010.22;4939398;28;20047;-85
2021/12/19 07:40:16;;;;;;;52.25;21.73;;;;;;;6.84;96.32;103007.47;4934211;29;20045;-85
2021/12/19 07:42:44;;;;;;;52.55;20.92;;;;;;;6.82;96.20;103009.66;4938725;28;20093;-85
2021/12/19 07:45:13;;;;;;;68.05;22.30;;;;;;;6.83;96.23;103011.28;4936935;29;20058;-85
2021/12/19 07:47:40;;;;;;;53.60;22.88;;;;;;;6.83;96.41;103016.00;4970203;28;20047;-85
2021/12/19 07:50:09;;;;;;;48.92;20.60;;;;;;;6.82;96.35;103008.81;4956412;28;20039;-85
2021/12/19 07:52:36;;;;;;;59.53;23.08;;;;;;;6.82;96.13;103003.31;4944013;28;20039;-84
2021/12/19 07:55:05;;;;;;;61.50;20.50;;;;;;;6.81;96.10;103005.22;4948661;28;20846;-85
2021/12/19 07:57:31;;;;;;;52.25;21.70;;;;;;;6.81;96.17;103007.97;4930070;29;20050;-85
2021/12/19 07:59:58;;;;;;;47.92;21.80;;;;;;;6.80;96.09;102991.75;4944579;28;20058;-85
2021/12/19 08:02:27;;;;;;;49.40;21.35;;;;;;;6.79;96.24;102998.34;4955369;28;20047;-84
2021/12/19 08:04:54;;;;;;;60.13;24.27;;;;;;;6.79;96.05;102992.81;4936164;29;20503;-85
2021/12/19 08:07:23;;;;;;;57.45;23.80;;;;;;;6.79;96.18;102998.34;4935934;29;20050;-84
2021/12/19 08:12:46;;;;;;;51.17;21.33;;;;;;;6.73;96.12;102997.47;4918308;29;20119;-85
2021/12/19 08:15:15;;;;;;;48.70;20.83;;;;;;;6.74;95.77;102997.22;4934444;29;20487;-85
2021/12/19 08:17:43;;;;;;;50.03;21.27;;;;;;;6.74;95.99;102993.63;4941865;29;20039;-85
2021/12/19 08:20:11;;;;;;;52.25;21.02;;;;;;;6.73;95.89;102992.78;4943383;28;20050;-85
2021/12/19 08:22:37;;;;;;;51.90;20.90;;;;;;;6.74;96.10;102994.47;4939422;28;20057;-85
2021/12/19 08:25:05;;;;;;;53.10;22.88;;;;;;;6.74;95.95;102990.88;4956893;28;20130;-85
2021/12/19 08:27:37;;;;;;;48.92;21.13;;;;;;;6.73;95.94;102995.53;4957331;28;20051;-85
2021/12/19 08:30:06;;;;;;;57.47;23.58;;;;;;;6.73;95.81;102994.72;4939105;28;20043;-84
2021/12/19 08:32:33;;;;;;;58.28;24.52;;;;;;;6.71;95.71;102977.63;4946231;28;20057;-85
2021/12/19 08:35:01;;;;;;;56.60;22.95;;;;;;;6.72;95.83;102988.38;4952567;28;20042;-85
2021/12/19 08:37:27;;;;;;;54.15;21.77;;;;;;;6.71;95.88;102985.91;4957270;28;20034;-85
2021/12/19 08:39:56;;;;;;;54.90;21.48;;;;;;;6.70;95.86;102993.31;4956984;28;20145;-84
2021/12/19 08:42:23;;;;;;;51.33;22.10;;;;;;;6.70;95.91;102985.06;4956744;28;20047;-84
2021/12/19 08:44:50;;;;;;;59.28;22.08;;;;;;;6.71;95.99;102991.41;4956585;28;20049;-84
2021/12/19 08:47:17;;;;;;;46.45;21.08;;;;;;;6.72;96.10;102985.63;4935138;28;20047;-85
2021/12/19 08:49:44;;;;;;;54.17;23.67;;;;;;;6.74;96.04;102982.63;4960065;28;20050;-84
2021/12/19 08:52:11;;;;;;;55.60;24.85;;;;;;;6.77;96.20;102976.59;4944122;28;20398;-85
2021/12/19 08:54:38;;;;;;;57.85;24.88;;;;;;;6.78;95.91;102974.66;4962230;28;20055;-85
2021/12/19 08:57:05;;;;;;;62.60;24.58;;;;;;;6.81;96.05;102985.13;4943712;28;20050;-85
2021/12/19 08:59:32;;;;;;;56.72;26.58;;;;;;;6.83;95.89;102977.44;4961612;28;20529;-85
2021/12/19 09:02:01;;;;;;;60.38;25.13;;;;;;;6.85;96.06;102986.25;4942047;28;20380;-85
2021/12/19 09:04:29;;;;;;;62.95;25.38;;;;;;;6.84;96.23;102979.09;4957889;28;20724;-84
2021/12/19 09:06:58;;;;;;;65.00;25.77;;;;;;;6.85;96.11;102980.75;4960517;28;20055;-84
2021/12/19 09:09:25;;;;;;;58.40;24.13;;;;;;;6.86;95.95;102977.72;4941808;28;20047;-84
2021/12/19 09:11:52;;;;;;;63.72;26.48;;;;;;;6.88;96.20;102980.22;4943999;28;20102;-84
2021/12/19 09:14:19;;;;;;;59.97;26.92;;;;;;;6.88;96.17;102980.22;4964304;28;20042;-85
2021/12/19 09:16:46;;;;;;;64.05;27.67;;;;;;;6.89;96.22;102976.38;4960115;28;20050;-85
2021/12/19 09:19:14;;;;;;;54.00;24.73;;;;;;;6.91;96.00;102974.19;4942535;28;20051;-85
2021/12/19 09:21:41;;;;;;;63.13;27.35;;;;;;;6.90;95.87;102973.38;4948404;28;20141;-84
2021/12/19 09:24:08;;;;;;;66.68;27.65;;;;;;;6.90;95.34;102975.28;4958458;28;20051;-84
2021/12/19 09:26:36;;;;;;;57.97;25.60;;;;;;;6.90;95.95;102961.50;4960242;28;20599;-85
2021/12/19 09:29:03;;;;;;;68.38;27.55;;;;;;;6.91;96.13;102968.69;4943588;28;20051;-85
2021/12/19 09:31:30;;;;;;;60.65;26.55;;;;;;;6.91;95.91;102979.72;4942930;28;20043;-84
2021/12/19 09:33:57;;;;;;;62.65;27.92;;;;;;;6.93;96.00;102966.50;4952250;28;20047;-84
2021/12/19 09:36:24;;;;;;;66.20;28.52;;;;;;;6.96;95.75;102976.97;4939281;29;20036;-84
2021/12/19 09:38:52;;;;;;;63.58;27.42;;;;;;;6.97;96.11;102973.09;4945843;28;20039;-84
2021/12/19 09:41:28;;;;;;;60.67;30.27;;;;;;;7.01;96.07;102966.00;4959261;28;20039;-85
2021/12/19 09:44:02;;;;;;;70.07;27.67;;;;;;;7.03;96.01;102967.38;4952623;28;20485;-84
2021/12/19 09:46:34;;;;;;;71.18;28.25;;;;;;;7.05;96.04;102962.41;4949502;28;20047;-84
2021/12/19 09:49:01;;;;;;;68.00;30.67;;;;;;;7.08;95.85;102966.56;4948597;29;20055;-85
2021/12/19 09:51:28;;;;;;;71.78;29.35;;;;;;;7.10;95.91;102976.22;4938931;29;20054;-85
2021/12/19 09:53:54;;;;;;;72.10;28.77;;;;;;;7.12;95.94;102973.22;4940858;29;20049;-85
2021/12/19 09:56:22;;;;;;;75.38;31.58;;;;;;;7.17;96.17;102970.47;4955451;28;20087;-85
2021/12/19 09:58:50;;;;;;;65.80;29.13;;;;;;;7.21;96.39;102985.38;4941137;28;20574;-84
2021/12/19 10:01:17;;;;;;;78.82;31.08;;;;;;;7.23;96.29;102978.47;4947207;28;20459;-84
2021/12/19 10:03:44;;;;;;;73.63;31.95;;;;;;;7.27;96.19;102967.75;4953111;28;20078;-84
2021/12/19 10:06:20;;;;;;;74.00;29.98;;;;;;;7.30;96.22;102973.56;4935416;29;20061;-85
2021/12/19 10:08:53;;;;;;;73.15;31.92;;;;;;;7.32;96.22;102970.53;4961765;28;20061;-84
2021/12/19 10:11:45;;;;;;;59.22;27.63;;;;;;;7.32;96.00;102971.38;4945805;29;20126;-86
2021/12/19 10:14:32;;;;;;;60.00;26.63;;;;;;;7.33;95.85;102972.22;4949759;28;20184;-83
2021/12/19 10:17:05;;;;;;;56.78;26.17;;;;;;;7.37;95.95;102967.81;4957090;28;20031;-83
2021/12/19 10:19:45;;;;;;;62.15;30.25;;;;;;;7.41;95.93;102971.69;4944971;29;20054;-82
2021/12/19 10:22:37;;;;;;;64.75;28.60;;;;;;;7.47;96.00;102978.03;4949544;28;20293;-85
2021/12/19 10:25:07;;;;;;;64.82;28.38;;;;;;;7.49;95.68;102982.19;4950497;28;20126;-83
2021/12/19 10:27:42;;;;;;;58.30;26.58;;;;;;;7.52;95.58;102970.59;4963322;28;20126;-84
2021/12/19 10:30:17;;;;;;;55.22;24.70;;;;;;;7.54;95.51;102978.63;4949472;28;20639;-83
2021/12/19 10:32:58;;;;;;;51.22;24.73;;;;;;;7.57;95.62;102972.56;4964344;28;20054;-83
2021/12/19 10:35:36;;;;;;;57.67;26.52;;;;;;;7.57;95.20;102976.13;4960037;28;20038;-84
2021/12/19 10:38:04;;;;;;;48.35;25.35;;;;;;;7.58;95.42;102975.03;4959405;28;20042;-83
2021/12/19 10:40:31;;;;;;;51.55;26.05;;;;;;;7.62;95.41;102976.16;4957025;28;20482;-83
2021/12/19 10:43:03;;;;;;;57.38;28.60;;;;;;;7.60;94.94;102972.84;4931799;29;20069;-85
2021/12/19 10:45:51;;;;;;;;;;;;;;;7.59;94.74;102973.13;4950216;28;20075;-83
2021/12/19 10:48:24;;;;;;;56.35;27.48;;;;;;;7.55;94.68;102970.06;4965369;28;19918;-84
2021/12/19 10:51:01;;;;;;;52.00;25.63;;;;;;;7.57;94.76;102967.84;4941509;28;20557;-85
2021/12/19 10:53:33;;;;;;;51.88;22.58;;;;;;;7.57;94.50;102973.38;4942452;29;20090;-84
2021/12/19 10:56:03;;;;;;;53.00;26.10;;;;;;;7.58;94.74;102975.03;4964287;28;20074;-84
2021/12/19 10:58:37;;;;;;;50.30;23.70;;;;;;;7.61;94.41;102963.47;4941955;28;20042;-84
2021/12/19 11:01:09;;;;;;;56.50;27.75;;;;;;;7.64;94.69;102965.69;4941356;28;20414;-84
2021/12/19 11:04:23;;;;;;;49.97;25.95;;;;;;;7.67;94.45;102978.09;4955552;28;20141;-83
2021/12/19 11:06:59;;;;;;;47.20;24.17;;;;;;;7.63;94.34;102965.94;4922665;28;20475;-83
2021/12/19 11:09:31;;;;;;;60.33;24.92;;;;;;;7.67;94.45;102972.59;4960887;28;20085;-84
2021/12/19 11:12:05;;;;;;;50.50;23.13;;;;;;;7.70;94.24;102967.38;4960459;28;20042;-83
2021/12/19 11:14:43;;;;;;;52.65;26.20;;;;;;;7.73;94.10;102971.50;4936269;29;20118;-84
2021/12/19 11:17:20;;;;;;;41.97;23.15;;;;;;;7.72;93.97;102956.06;4935247;29;20039;-84
2021/12/19 11:19:50;;;;;;;43.25;22.70;;;;;;;7.74;93.99;102951.94;4952672;28;20053;-84
2021/12/19 11:22:23;;;;;;;48.05;24.38;;;;;;;7.78;93.96;102957.75;4937758;28;20047;-85
2021/12/19 11:24:57;;;;;;;51.10;23.77;;;;;;;7.79;93.96;102951.09;4958692;28;20207;-84
2021/12/19 11:27:25;;;;;;;52.10;25.83;;;;;;;7.83;94.02;102947.56;4962557;28;20122;-84
2021/12/19 11:29:54;;;;;;;49.88;23.25;;;;;;;7.83;93.81;102941.19;4975256;28;20070;-84
2021/12/19 11:32:51;;;;;;;49.25;23.92;;;;;;;7.83;93.71;102942.03;4931192;28;20501;-84
2021/12/19 11:35:22;;;;;;;43.75;22.85;;;;;;;7.83;93.23;102933.75;4926431;28;20055;-83
2021/12/19 11:37:52;;;;;;;50.53;24.50;;;;;;;7.84;93.61;102934.56;4959424;28;20043;-92
2021/12/19 11:40:21;;;;;;;47.90;22.95;;;;;;;7.83;93.41;102917.22;4964596;28;21913;-91
2021/12/19 11:42:48;;;;;;;45.97;22.60;;;;;;;7.82;93.38;102921.06;4943071;28;20042;-92
2021/12/19 11:48:05;;;;;;;45.60;22.02;;;;;;;7.87;93.19;102915.53;4958875;28;20086;-84
2021/12/19 11:50:36;;;;;;;44.58;22.90;;;;;;;7.91;93.32;102911.16;4956321;28;20046;-84
2021/12/19 11:53:04;;;;;;;45.40;22.15;;;;;;;7.91;93.17;102905.63;4952838;28;20043;-83
2021/12/19 11:55:44;;;;;;;48.58;22.20;;;;;;;7.88;92.84;102900.66;4937980;29;20527;-83
2021/12/19 11:58:12;;;;;;;45.13;23.27;;;;;;;7.88;92.88;102903.44;4934928;29;20126;-83
2021/12/19 12:00:53;;;;;;;45.83;22.48;;;;;;;7.91;93.06;102908.41;4930886;29;20051;-83
2021/12/19 12:03:46;;;;;;;46.97;23.60;;;;;;;7.93;93.01;102899.84;4929454;29;20054;-83
2021/12/19 12:06:23;;;;;;;45.03;22.90;;;;;;;7.91;92.49;102891.84;4925246;29;22070;-83
2021/12/19 12:09:15;;;;;;;42.28;22.52;;;;;;;7.96;92.65;102889.09;4934370;28;20078;-83
2021/12/19 12:12:00;;;;;;;37.83;19.80;;;;;;;7.96;92.42;102875.31;4922205;29;20047;-83
2021/12/19 12:14:31;;;;;;;42.55;20.67;;;;;;;7.96;92.45;102866.19;4928785;29;20066;-83
2021/12/19 12:17:09;;;;;;;45.88;20.30;;;;;;;7.95;92.29;102859.84;4955425;28;20054;-84
2021/12/19 12:19:38;;;;;;;45.42;21.40;;;;;;;7.88;91.89;102875.84;4939531;29;20051;-84
2021/12/19 12:22:31;;;;;;;44.92;21.35;;;;;;;7.87;91.89;102863.16;4939566;29;20035;-83
2021/12/19 12:25:31;;;;;;;40.17;21.80;;;;;;;7.82;91.43;102865.06;4953493;28;20043;-84
2021/12/19 12:28:06;;;;;;;37.17;19.95;;;;;;;7.78;91.62;102875.00;4938999;29;20484;-83
2021/12/19 12:30:37;;;;;;;41.22;22.10;;;;;;;7.77;91.85;102868.66;4939730;29;20428;-83
2021/12/19 12:33:07;;;;;;;40.03;22.50;;;;;;;7.77;91.94;102867.84;4942741;28;20035;-85
2021/12/19 12:35:40;;;;;;;37.63;19.92;;;;;;;7.83;92.11;102870.34;4941781;29;20729;-85
2021/12/19 12:38:09;;;;;;;38.20;19.70;;;;;;;7.84;91.90;102871.13;4938274;29;20051;-86
2021/12/19 12:41:03;;;;;;;41.38;23.02;;;;;;;7.88;91.90;102870.34;4919889;29;20040;-86
2021/12/19 12:43:40;;;;;;;33.42;18.75;;;;;;;7.87;91.72;102863.16;4929208;29;20045;-87
2021/12/19 12:46:20;;;;;;;37.50;19.50;;;;;;;7.82;91.54;102865.06;4934803;29;20082;-85
2021/12/19 12:48:58;;;;;;;31.13;16.85;;;;;;;7.81;91.63;102866.19;4939024;29;20066;-84